Airfield :
LOGIN :

Register | Disclaimer

   EN    FR    IT 

 










Legend :    VFR   Marginal VFR   IFR   Intensive IFR   Very Intensive IFR
Visi :
Ceiling :
>= 8 km
>= 3000ft
5 to 8 km
1000 to 3000 ft
1500m to 5 km
500 to 1000 ft
800 to 1500m
200 to 500 ft
< 800m
< 200 ft
Symbols :   Thunderstorms  Fog  Heavy snow  Heavy precipitations  Wind > 20 kt
SIGMETs :     Misc.  Thunderstorms  Icing  Turbulence  Mountain Waves  Volcanic Ashes






- Airport Elevation : 1682 ft
- IATA code : VIT


LEVT - Vitoria Gasteiz

CURRENT METAR :
  • 170300Z 00000KT 9000 NSC 10/09 Q1012

EXPIRED METARs :
  • 170230Z 16003KT 120V200 CAVOK 09/09 Q1013
  • 170200Z 00000KT 9000 NSC 11/10 Q1013
  • 170130Z 00000KT CAVOK 11/09 Q1013
  • 170100Z 00000KT CAVOK 12/10 Q1013
  • 170030Z 00000KT CAVOK 13/11 Q1013
  • 170000Z VRB02KT CAVOK 14/11 Q1013
  • 162330Z 00000KT CAVOK 14/11 Q1014
  • 162300Z 36005KT CAVOK 16/11 Q1014
  • 162230Z 36005KT 320V030 CAVOK 16/11 Q1014

TAF TAF LEVT
Valid from the 17 at 00:00 until the 18 at 00:00 UTC


162300Z 1700/1724 01009KT 9999 FEW040 TX30/1712Z TN09/1705Z
PROB30
TEMPO 1702/1706 3000 BR BKN010
TEMPO 1706/1718 20010KT



MET'MAP, your aeronautical weather chart ! - Copyright ORBIFLY December 2007 - Disclaimer

ORBIFLY MET'MAP TEAM :

Programming & Development : Alexandra Zaïnal
Original concept : Baudouin d'Aumeries
Technical & hardware support : Manuel Goepfert
Assistance : Marc-Olivier Méhu




SOURCES & CREDITS :

   NOAA